Accueil
METAR-TAF:

METAR-TAF

Aéroports :

Aéroport international de Ras el Khaïmah

Ras el Khaïmah, Émirats arabes unis

latitude: 25-37N, longitude: 055-56E, altitude: 31 m

Observation

Le bulletin a été fait il y a 44 minutes, à 18:00 UTC
Vent 2 kt de ouest
Température 31°C
Humidité 66%
Pression 1005 hPa
Visibilité 10 km ou plus
pas de nuages en-dessous de 1500 mètres et pas de cumulonimbus.

METAR: OMRK 231800Z 28002KT CAVOK 31/24 Q1005 A2967

Heure: 22:44 (18:44 UTC)

Prévision

Le bulletin a été fait il y a 1 heure et 44 minutes, à 17:00 UTC
Prévision valable du 23 à 18 UTC au 25 à 00 UTC
Vent 2 kt de direction variable
Visibilité: 8000 m
Evoluant progressivement
du 24 à 08 UTC au 24 à 10 UTC
Vent 10 kt de nord
Evoluant progressivement
du 24 à 15 UTC au 24 à 17 UTC
Vent 2 kt de direction variable

TAF: OMRK 231700Z 2318/2500 VRB02KT 8000 NSC BECMG 2408/2410 36010KT BECMG 2415/2417 VRB02KT

Observations et prévisions météorologiques de plus de 4000 aéroports (messages METAR et TAF).

Les stations disponibles sont représentées par des disques jaunes et rouges sur la carte.

Passer la souris dessus pour voir le nom de la station.

Cliquer dessus pour voir les observations et prévisions météorologiques.

Pour changer de carte: cliquez sur les boutons verts avec une croix noire pour zoomer, sur le bouton vert avec un tiret pour effectuer un zoom arrière, ou sur les flèches vertes pour les cartes adjacentes.


METAR-TAF: